Time;durP1;ratioP1;P1;durP2;ratioP2;P2;SDS_P1;SDS_P2;PMS_P1;PMS_P2;Temp;Humidity;BMP_temperature;BMP_pressure;BME280_temperature;BME280_humidity;BME280_pressure;Samples;Min_cycle;Max_cycle;Signal;HPM_P1;HPM_P2
2022/01/17 00:01:33;;;;;;;15.93;1.35;;;7.80;99.90;;;;;;4975698;28;20031;-74
2022/01/17 00:03:59;;;;;;;18.27;2.85;;;7.70;99.90;;;;;;4976165;28;20034;-73
2022/01/17 00:06:25;;;;;;;7.10;1.23;;;7.70;99.90;;;;;;4976457;28;20039;-74
2022/01/17 00:08:51;;;;;;;9.73;1.23;;;7.70;99.90;;;;;;4976490;28;20503;-73
2022/01/17 00:11:17;;;;;;;7.70;1.00;;;7.70;99.90;;;;;;4975265;28;20038;-74
2022/01/17 00:13:45;;;;;;;16.25;1.38;;;7.80;99.90;;;;;;4976059;28;20046;-74
2022/01/17 00:16:18;;;;;;;8.73;1.02;;;7.90;99.90;;;;;;4975298;28;20118;-75
2022/01/17 00:21:10;;;;;;;6.00;1.85;;;7.80;99.90;;;;;;4976462;28;20035;-74
2022/01/17 00:23:36;;;;;;;11.57;1.77;;;7.80;99.90;;;;;;4974972;28;20046;-74
2022/01/17 00:26:04;;;;;;;12.50;2.03;;;7.80;99.90;;;;;;4973454;28;20027;-75
2022/01/17 00:28:30;;;;;;;17.38;1.48;;;7.80;99.90;;;;;;4975741;28;20031;-74
2022/01/17 00:30:55;;;;;;;9.68;1.00;;;7.70;99.90;;;;;;4976059;28;20086;-74
2022/01/17 00:33:21;;;;;;;6.43;1.20;;;7.70;99.90;;;;;;4975793;28;20022;-74
2022/01/17 00:35:46;;;;;;;9.77;1.00;;;7.70;99.90;;;;;;4973977;28;20114;-74
2022/01/17 00:38:12;;;;;;;5.63;1.15;;;7.70;99.90;;;;;;4974022;28;20415;-73
2022/01/17 00:40:42;;;;;;;10.30;1.10;;;7.80;99.90;;;;;;4974508;28;20023;-74
2022/01/17 00:43:10;;;;;;;5.10;1.25;;;7.70;99.90;;;;;;4968964;28;20122;-74
2022/01/17 00:45:38;;;;;;;11.93;1.52;;;7.70;99.90;;;;;;4974740;28;20023;-74
2022/01/17 00:48:04;;;;;;;9.50;1.02;;;7.70;99.90;;;;;;4975097;28;20054;-75
2022/01/17 00:50:31;;;;;;;9.38;1.85;;;7.70;99.90;;;;;;4973816;28;20043;-74
2022/01/17 00:53:02;;;;;;;11.40;1.60;;;7.70;99.90;;;;;;4973979;28;20023;-74
2022/01/17 00:55:29;;;;;;;14.52;1.20;;;7.60;99.90;;;;;;4975714;28;20496;-74
2022/01/17 00:57:54;;;;;;;5.93;2.15;;;7.70;99.90;;;;;;4973656;28;20085;-74
2022/01/17 01:00:20;;;;;;;6.72;1.15;;;7.70;99.90;;;;;;4975181;28;20117;-74
2022/01/17 01:02:46;;;;;;;5.25;1.10;;;7.70;99.90;;;;;;4976321;28;20037;-73
2022/01/17 01:05:13;;;;;;;15.75;2.50;;;7.80;99.90;;;;;;4974930;28;20034;-74
2022/01/17 01:07:39;;;;;;;10.18;1.15;;;7.70;99.90;;;;;;4974003;28;20086;-74
2022/01/17 01:10:10;;;;;;;8.77;1.73;;;7.70;99.90;;;;;;4972285;28;20039;-74
2022/01/17 01:12:36;;;;;;;19.08;1.38;;;7.70;99.90;;;;;;4974848;28;20498;-74
2022/01/17 01:15:06;;;;;;;14.15;1.85;;;7.70;99.90;;;;;;4973639;28;20073;-74
2022/01/17 01:18:14;;;;;;;16.30;1.42;;;7.60;99.90;;;;;;4973462;28;20114;-75
2022/01/17 01:28:26;;;;;;;6.53;0.82;;;7.60;99.90;;;;;;4957474;28;20046;-74
2022/01/17 01:30:54;;;;;;;10.93;1.08;;;7.60;99.90;;;;;;4974257;28;20026;-74
2022/01/17 01:33:33;;;;;;;;;;;7.60;99.90;;;;;;4974093;28;20035;-73
2022/01/17 01:36:04;;;;;;;10.75;2.03;;;7.70;99.90;;;;;;4973108;28;20001;-74
2022/01/17 01:38:30;;;;;;;12.02;2.13;;;7.70;99.90;;;;;;4972817;28;20047;-73
2022/01/17 01:40:56;;;;;;;10.15;1.20;;;7.60;99.90;;;;;;4974088;28;20042;-74
2022/01/17 01:43:21;;;;;;;10.43;2.50;;;7.60;99.90;;;;;;4974185;28;20090;-74
2022/01/17 01:45:57;;;;;;;10.57;1.70;;;7.60;99.90;;;;;;4974687;28;20038;-74
2022/01/17 01:48:23;;;;;;;9.65;1.35;;;7.50;99.90;;;;;;4972356;28;20043;-76
2022/01/17 01:50:49;;;;;;;9.30;1.38;;;7.50;99.90;;;;;;4972519;28;20063;-74
2022/01/17 01:53:15;;;;;;;11.57;1.38;;;7.40;99.90;;;;;;4966600;28;20435;-74
2022/01/17 01:55:40;;;;;;;16.08;2.33;;;7.40;99.90;;;;;;4974160;28;20126;-74
2022/01/17 01:58:06;;;;;;;11.60;1.50;;;7.20;99.90;;;;;;4972734;28;20080;-75
2022/01/17 02:00:32;;;;;;;13.18;2.33;;;7.10;99.90;;;;;;4973882;28;20043;-75
2022/01/17 02:02:57;;;;;;;14.18;1.27;;;7.10;99.90;;;;;;4974092;28;20023;-74
2022/01/17 02:05:25;;;;;;;17.05;1.73;;;7.00;99.90;;;;;;4973292;28;20101;-74
2022/01/17 02:07:50;;;;;;;13.40;1.70;;;7.00;99.90;;;;;;4972809;28;20037;-75
2022/01/17 02:10:16;;;;;;;15.98;1.20;;;6.90;99.90;;;;;;4972516;28;20023;-74
2022/01/17 02:12:42;;;;;;;8.90;1.17;;;6.80;99.90;;;;;;4973223;28;20098;-74
2022/01/17 02:15:14;;;;;;;8.30;0.85;;;6.80;99.90;;;;;;4973428;28;20030;-75
2022/01/17 02:17:45;;;;;;;8.40;1.65;;;6.80;99.90;;;;;;4972914;28;20022;-74
2022/01/17 02:20:17;;;;;;;12.45;1.70;;;6.80;99.90;;;;;;4974296;28;20073;-74
2022/01/17 02:22:43;;;;;;;21.50;2.13;;;6.70;99.90;;;;;;4971979;28;20439;-74
2022/01/17 02:25:09;;;;;;;12.85;1.10;;;6.70;99.90;;;;;;4973527;28;20035;-75
2022/01/17 02:27:35;;;;;;;12.55;1.67;;;6.70;99.90;;;;;;4973673;28;20031;-75
2022/01/17 02:30:00;;;;;;;8.85;1.23;;;6.60;99.90;;;;;;4972693;28;20042;-74
2022/01/17 02:32:26;;;;;;;7.78;2.40;;;6.60;99.90;;;;;;4973163;28;20043;-75
2022/01/17 02:35:09;;;;;;;12.13;1.10;;;6.60;99.90;;;;;;4973726;28;20097;-74
2022/01/17 02:37:35;;;;;;;12.70;1.88;;;6.50;99.90;;;;;;4973349;28;20070;-74
2022/01/17 02:40:00;;;;;;;8.40;1.27;;;6.50;99.90;;;;;;4972075;28;20023;-75
2022/01/17 02:42:27;;;;;;;12.73;1.42;;;6.50;99.90;;;;;;4972624;28;20042;-74
2022/01/17 02:44:59;;;;;;;10.30;1.63;;;6.40;99.90;;;;;;4973818;28;20384;-74
2022/01/17 02:47:25;;;;;;;11.82;2.03;;;6.40;99.90;;;;;;4973720;28;20035;-74
2022/01/17 02:49:50;;;;;;;10.43;1.50;;;6.40;99.90;;;;;;4972801;28;20139;-74
2022/01/17 02:52:19;;;;;;;15.98;3.05;;;6.40;99.90;;;;;;4970773;28;20027;-75
2022/01/17 02:54:45;;;;;;;6.70;1.50;;;6.40;99.90;;;;;;4972077;28;20091;-74
2022/01/17 02:57:11;;;;;;;12.15;1.42;;;6.40;99.90;;;;;;4972687;28;20043;-74
2022/01/17 02:59:36;;;;;;;14.82;1.13;;;6.40;99.90;;;;;;4968264;28;20042;-75
2022/01/17 03:02:03;;;;;;;7.18;0.93;;;6.30;99.90;;;;;;4974998;28;20031;-74
2022/01/17 03:04:30;;;;;;;17.60;1.67;;;6.20;99.90;;;;;;4976700;28;20031;-73
2022/01/17 03:06:56;;;;;;;6.60;0.98;;;6.30;99.90;;;;;;4976502;28;20042;-74
2022/01/17 03:09:24;;;;;;;19.13;1.67;;;6.20;99.90;;;;;;4975060;28;20503;-74
2022/01/17 03:11:49;;;;;;;10.85;1.55;;;6.20;99.90;;;;;;4961959;28;20094;-73
2022/01/17 03:14:15;;;;;;;7.60;1.35;;;6.20;99.90;;;;;;4976520;28;20040;-73
2022/01/17 03:16:46;;;;;;;9.02;1.77;;;6.20;99.90;;;;;;4975181;28;20019;-74
2022/01/17 03:19:13;;;;;;;11.13;0.93;;;6.10;99.90;;;;;;4975550;28;20042;-74
2022/01/17 03:21:38;;;;;;;9.10;1.27;;;6.10;99.90;;;;;;4975726;28;20033;-75
2022/01/17 03:24:06;;;;;;;3.78;1.02;;;6.10;99.90;;;;;;4976620;28;20122;-74
2022/01/17 03:26:32;;;;;;;5.55;0.75;;;6.10;99.90;;;;;;4976933;28;20023;-74
2022/01/17 03:28:59;;;;;;;4.43;0.85;;;6.00;99.90;;;;;;4976397;28;20089;-74
2022/01/17 03:31:25;;;;;;;2.83;0.75;;;6.00;99.90;;;;;;4975657;28;20058;-74
2022/01/17 03:33:51;;;;;;;7.90;1.20;;;6.00;99.90;;;;;;4975917;28;20042;-75
2022/01/17 03:36:17;;;;;;;10.68;1.30;;;5.90;99.90;;;;;;4976242;28;20479;-74
2022/01/17 03:38:42;;;;;;;7.18;1.65;;;5.90;99.90;;;;;;4975201;28;20522;-74
2022/01/17 03:41:10;;;;;;;7.53;1.02;;;5.80;99.90;;;;;;4976753;28;20046;-75
2022/01/17 03:43:36;;;;;;;10.33;1.23;;;5.80;99.90;;;;;;4975873;28;20030;-75
2022/01/17 03:46:02;;;;;;;7.05;1.67;;;5.80;99.90;;;;;;4975564;28;20081;-74
2022/01/17 03:48:29;;;;;;;15.27;1.65;;;5.80;99.90;;;;;;4976147;28;20081;-75
2022/01/17 03:50:55;;;;;;;12.40;1.17;;;5.80;99.90;;;;;;4975301;28;20097;-75
2022/01/17 03:53:22;;;;;;;10.13;1.02;;;5.70;99.90;;;;;;4976090;28;20395;-74
2022/01/17 03:55:48;;;;;;;14.60;1.02;;;5.70;99.90;;;;;;4975414;28;20094;-75
2022/01/17 03:58:13;;;;;;;7.32;1.42;;;5.70;99.90;;;;;;4976596;28;20030;-74
2022/01/17 04:00:42;;;;;;;19.02;1.45;;;5.60;99.90;;;;;;4976063;28;20027;-74
2022/01/17 04:03:08;;;;;;;11.07;1.17;;;5.60;99.90;;;;;;4975725;28;20019;-74
2022/01/17 04:05:34;;;;;;;5.70;0.88;;;5.50;99.90;;;;;;4974367;28;20061;-74
2022/01/17 04:08:00;;;;;;;8.68;1.35;;;5.50;99.90;;;;;;4975566;28;20066;-74
2022/01/17 04:10:26;;;;;;;8.25;1.83;;;5.50;99.90;;;;;;4975895;28;20495;-74
2022/01/17 04:12:53;;;;;;;9.25;1.30;;;5.50;99.90;;;;;;4974677;28;20114;-74
2022/01/17 04:15:19;;;;;;;13.43;2.33;;;5.60;99.90;;;;;;4975619;28;20439;-74
2022/01/17 04:17:44;;;;;;;4.35;1.05;;;5.70;99.90;;;;;;4974419;28;20027;-73
2022/01/17 04:20:16;;;;;;;4.75;2.00;;;5.80;99.90;;;;;;4976390;28;20031;-74
2022/01/17 04:22:50;;;;;;;16.60;1.58;;;5.80;99.90;;;;;;4975642;28;20034;-74
2022/01/17 04:25:16;;;;;;;9.65;1.45;;;5.90;99.90;;;;;;4975007;28;20581;-74
2022/01/17 04:27:41;;;;;;;10.90;1.80;;;5.80;99.90;;;;;;4975684;28;20059;-74
2022/01/17 04:30:07;;;;;;;14.25;2.20;;;5.80;99.90;;;;;;4975876;28;20031;-74
2022/01/17 04:32:34;;;;;;;11.43;1.92;;;5.90;99.90;;;;;;4974650;28;20034;-74
2022/01/17 04:34:59;;;;;;;9.25;1.85;;;5.90;99.90;;;;;;4975566;28;20395;-74
2022/01/17 04:37:25;;;;;;;15.93;2.33;;;5.90;99.90;;;;;;4975903;28;20050;-73
2022/01/17 04:39:50;;;;;;;8.50;1.70;;;5.90;99.90;;;;;;4976084;28;20493;-74
2022/01/17 04:42:23;;;;;;;5.43;1.25;;;5.80;99.90;;;;;;4977502;28;20039;-74
2022/01/17 04:45:07;;;;;;;3.50;1.38;;;5.70;99.90;;;;;;4979273;28;20056;-76
2022/01/17 04:47:36;;;;;;;11.82;1.98;;;5.70;99.90;;;;;;4978015;28;20129;-74
2022/01/17 04:50:13;;;;;;;5.90;1.98;;;5.60;99.90;;;;;;4979110;28;20058;-75
2022/01/17 04:52:39;;;;;;;8.52;1.90;;;5.60;99.90;;;;;;4979085;28;20721;-73
2022/01/17 04:55:09;;;;;;;10.18;1.65;;;5.60;99.90;;;;;;4980293;28;20027;-74
2022/01/17 04:57:36;;;;;;;15.48;2.30;;;5.50;99.90;;;;;;4978871;28;20364;-73
2022/01/17 05:00:05;;;;;;;3.72;1.38;;;5.50;99.90;;;;;;4978580;28;20034;-74
2022/01/17 05:02:30;;;;;;;4.97;1.70;;;5.50;99.90;;;;;;4978955;28;20031;-75
2022/01/17 05:04:56;;;;;;;7.75;1.60;;;5.50;99.90;;;;;;4980075;28;20097;-75
2022/01/17 05:07:21;;;;;;;7.78;1.92;;;5.50;99.90;;;;;;4979269;28;20495;-74
2022/01/17 05:09:47;;;;;;;7.72;1.48;;;5.40;99.90;;;;;;4980822;28;20031;-75
2022/01/17 05:12:14;;;;;;;9.20;2.00;;;5.40;99.90;;;;;;4979299;28;20023;-74
2022/01/17 05:14:42;;;;;;;2.72;1.33;;;5.40;99.90;;;;;;4977614;28;20023;-77
2022/01/17 05:20:07;;;;;;;13.10;2.17;;;5.40;99.90;;;;;;4943174;28;20027;-75
2022/01/17 05:22:34;;;;;;;16.25;2.03;;;5.40;99.90;;;;;;4978745;28;20026;-75
2022/01/17 05:25:02;;;;;;;21.80;3.17;;;5.40;99.90;;;;;;4978777;28;20019;-76
2022/01/17 05:27:28;;;;;;;6.03;2.00;;;5.30;99.90;;;;;;4985013;28;20038;-76
2022/01/17 05:29:54;;;;;;;9.80;3.00;;;5.40;99.90;;;;;;4977499;28;20045;-75
2022/01/17 05:32:20;;;;;;;8.32;2.15;;;5.30;99.90;;;;;;4978674;28;20022;-75
2022/01/17 05:34:46;;;;;;;9.68;2.72;;;5.30;99.90;;;;;;4977364;28;20042;-76
2022/01/17 05:37:15;;;;;;;10.27;2.40;;;5.30;99.90;;;;;;4977460;28;20050;-74
2022/01/17 05:39:42;;;;;;;9.27;2.45;;;5.30;99.90;;;;;;4978700;28;20039;-74
2022/01/17 05:42:09;;;;;;;19.67;2.88;;;5.30;99.90;;;;;;4978013;28;20514;-74
2022/01/17 05:44:36;;;;;;;7.03;2.53;;;5.40;99.90;;;;;;4979017;28;20118;-74
2022/01/17 05:47:02;;;;;;;15.52;2.58;;;5.50;99.90;;;;;;4976376;28;20356;-73
2022/01/17 05:49:27;;;;;;;10.50;2.47;;;5.50;99.90;;;;;;4976612;28;20082;-74
2022/01/17 05:51:53;;;;;;;11.27;2.60;;;5.50;99.90;;;;;;4975693;28;20022;-74
2022/01/17 05:54:19;;;;;;;15.48;3.17;;;5.40;99.90;;;;;;4974604;28;20043;-74
2022/01/17 05:56:44;;;;;;;6.18;2.50;;;5.40;99.90;;;;;;4973737;28;20085;-74
2022/01/17 05:59:10;;;;;;;15.98;2.83;;;5.30;99.90;;;;;;4973945;28;20077;-73
2022/01/17 06:01:42;;;;;;;15.65;2.80;;;5.30;99.90;;;;;;4973206;28;20035;-74
2022/01/17 06:04:08;;;;;;;13.73;2.75;;;5.30;99.90;;;;;;4974250;28;20027;-74
2022/01/17 06:06:34;;;;;;;11.18;3.28;;;5.30;99.90;;;;;;4973239;28;20039;-73
2022/01/17 06:08:59;;;;;;;6.03;2.90;;;5.30;99.90;;;;;;4974487;28;20387;-73
2022/01/17 06:11:25;;;;;;;10.95;3.28;;;5.40;99.90;;;;;;4972727;28;20035;-74
2022/01/17 06:13:50;;;;;;;14.90;3.20;;;5.40;99.90;;;;;;4973592;28;20102;-74
2022/01/17 06:16:16;;;;;;;15.65;4.07;;;5.40;99.90;;;;;;4964036;28;20026;-76
2022/01/17 06:18:42;;;;;;;10.73;3.22;;;5.40;99.90;;;;;;4972639;28;20162;-75
2022/01/17 06:21:07;;;;;;;15.02;4.22;;;5.40;99.90;;;;;;4972762;28;20427;-74
2022/01/17 06:23:33;;;;;;;12.63;4.07;;;5.40;99.90;;;;;;4973077;28;20030;-74
2022/01/17 06:25:59;;;;;;;17.63;4.00;;;5.40;99.90;;;;;;4973478;28;20525;-74
2022/01/17 06:28:25;;;;;;;13.00;4.30;;;5.40;99.90;;;;;;4972460;28;20491;-74
2022/01/17 06:30:51;;;;;;;9.13;3.58;;;5.40;99.90;;;;;;4972794;28;20031;-75
2022/01/17 06:33:16;;;;;;;16.60;4.40;;;5.40;99.90;;;;;;4973056;28;20073;-74
2022/01/17 06:35:42;;;;;;;13.35;4.28;;;5.40;99.90;;;;;;4971461;28;20081;-74
2022/01/17 06:38:08;;;;;;;11.57;4.03;;;5.40;99.90;;;;;;4972091;28;20037;-74
2022/01/17 06:40:34;;;;;;;30.33;5.13;;;5.40;99.90;;;;;;4972160;28;20046;-73
2022/01/17 06:43:00;;;;;;;18.13;5.18;;;5.40;99.90;;;;;;4970659;28;20030;-73
2022/01/17 06:45:25;;;;;;;18.42;4.85;;;5.40;99.90;;;;;;4972331;28;20098;-74
2022/01/17 06:47:51;;;;;;;13.55;5.22;;;5.40;99.90;;;;;;4973901;28;20042;-75
2022/01/17 06:50:17;;;;;;;19.08;5.80;;;5.40;99.90;;;;;;4972117;28;20050;-73
2022/01/17 06:52:44;;;;;;;12.98;4.97;;;5.40;99.90;;;;;;4972603;28;20105;-73
2022/01/17 06:55:10;;;;;;;14.45;6.55;;;5.50;99.90;;;;;;4971770;28;20093;-74
2022/01/17 06:57:36;;;;;;;23.02;7.15;;;5.50;99.90;;;;;;4973686;28;20062;-73
2022/01/17 07:00:05;;;;;;;22.65;7.20;;;5.50;99.90;;;;;;4973345;28;20027;-73
2022/01/17 07:02:31;;;;;;;19.73;7.20;;;5.60;99.90;;;;;;4972979;28;20110;-73
2022/01/17 07:04:56;;;;;;;18.80;7.20;;;5.60;99.90;;;;;;4972189;28;20054;-74
2022/01/17 07:07:22;;;;;;;21.80;6.72;;;5.60;99.90;;;;;;4972318;28;20027;-73
2022/01/17 07:09:48;;;;;;;27.38;7.60;;;5.60;99.90;;;;;;4973261;28;20110;-74
2022/01/17 07:12:13;;;;;;;12.30;6.60;;;5.60;99.90;;;;;;4972754;28;20478;-73
2022/01/17 07:14:41;;;;;;;25.58;7.80;;;5.60;99.90;;;;;;4973719;28;20518;-73
2022/01/17 07:17:11;;;;;;;17.50;6.75;;;5.60;99.90;;;;;;4973290;28;20102;-74
2022/01/17 07:19:37;;;;;;;28.48;7.47;;;5.70;99.90;;;;;;4973367;28;20482;-74
2022/01/17 07:22:04;;;;;;;23.80;8.70;;;5.70;99.90;;;;;;4972016;28;20491;-74
2022/01/17 07:24:30;;;;;;;15.07;6.20;;;5.70;99.90;;;;;;4966222;28;20023;-73
2022/01/17 07:26:56;;;;;;;20.20;7.90;;;5.80;99.90;;;;;;4971742;28;20039;-74
2022/01/17 07:29:23;;;;;;;18.65;7.55;;;5.90;99.90;;;;;;4971442;28;20372;-74
2022/01/17 07:32:07;;;;;;;21.73;7.20;;;6.00;99.90;;;;;;4970882;28;20019;-73
2022/01/17 07:34:33;;;;;;;20.17;7.60;;;6.10;99.90;;;;;;4971738;28;20035;-74
2022/01/17 07:36:59;;;;;;;23.38;7.45;;;6.20;99.90;;;;;;4972447;28;20439;-74
2022/01/17 07:39:26;;;;;;;22.48;7.30;;;6.20;99.90;;;;;;4972094;28;20031;-73
2022/01/17 07:41:52;;;;;;;26.35;6.53;;;6.30;99.90;;;;;;4971114;28;20435;-73
2022/01/17 07:44:19;;;;;;;21.73;6.28;;;6.40;99.90;;;;;;4972827;28;20034;-74
2022/01/17 07:46:57;;;;;;;29.98;6.55;;;6.40;99.90;;;;;;4972702;28;20031;-75
2022/01/17 07:49:25;;;;;;;23.45;5.75;;;6.40;99.90;;;;;;4961407;28;20491;-73
2022/01/17 07:51:59;;;;;;;22.98;5.72;;;6.40;99.90;;;;;;4976105;28;20372;-73
2022/01/17 07:54:26;;;;;;;27.88;5.50;;;6.40;99.90;;;;;;4975667;28;20054;-73
2022/01/17 07:56:53;;;;;;;21.95;4.80;;;6.50;99.90;;;;;;4974631;28;20027;-75
2022/01/17 07:59:19;;;;;;;17.15;4.47;;;6.40;99.90;;;;;;4976315;28;20026;-75
2022/01/17 08:01:45;;;;;;;18.67;4.85;;;6.40;99.90;;;;;;4975394;28;20035;-73
2022/01/17 08:04:11;;;;;;;22.35;4.05;;;6.50;99.90;;;;;;4975644;28;20057;-74
2022/01/17 08:06:39;;;;;;;15.90;3.38;;;6.50;99.90;;;;;;4974463;28;20041;-74
2022/01/17 08:09:17;;;;;;;19.50;4.07;;;6.50;99.90;;;;;;4973678;28;20035;-74
2022/01/17 08:11:43;;;;;;;22.98;3.45;;;6.60;99.90;;;;;;4976090;28;20030;-75
2022/01/17 08:14:09;;;;;;;14.38;4.40;;;6.60;99.90;;;;;;4976353;28;20027;-77
2022/01/17 08:16:35;;;;;;;11.70;3.63;;;6.60;99.90;;;;;;4976021;28;20034;-76
2022/01/17 08:19:05;;;;;;;25.63;3.80;;;6.60;99.90;;;;;;4975416;28;20502;-77
2022/01/17 08:21:30;;;;;;;13.60;3.58;;;6.70;99.90;;;;;;4972686;28;20081;-77
2022/01/17 08:23:58;;;;;;;16.08;3.35;;;6.70;99.90;;;;;;4976487;28;20063;-77
2022/01/17 08:26:24;;;;;;;9.80;3.13;;;6.70;99.90;;;;;;4976214;28;20476;-78
2022/01/17 08:28:50;;;;;;;10.73;3.08;;;6.80;99.90;;;;;;4974239;28;20046;-74
2022/01/17 08:31:16;;;;;;;11.05;3.20;;;6.90;99.90;;;;;;4974879;28;20073;-74
2022/01/17 08:33:42;;;;;;;13.80;2.80;;;6.90;99.90;;;;;;4974077;28;20054;-74
2022/01/17 08:36:08;;;;;;;13.75;3.08;;;6.90;99.90;;;;;;4973171;28;20081;-79
2022/01/17 08:38:37;;;;;;;24.75;3.33;;;6.80;99.90;;;;;;4974689;28;20411;-76
2022/01/17 08:41:03;;;;;;;13.90;2.97;;;6.80;99.90;;;;;;4974808;28;20046;-75
2022/01/17 08:43:29;;;;;;;24.15;3.03;;;6.90;99.90;;;;;;4975523;28;20799;-74
2022/01/17 08:45:54;;;;;;;26.75;3.17;;;7.00;99.90;;;;;;4973929;28;20030;-75
2022/01/17 08:48:21;;;;;;;15.95;2.25;;;7.00;99.90;;;;;;4975473;28;20372;-75
2022/01/17 08:50:48;;;;;;;14.52;2.58;;;7.00;99.90;;;;;;4975673;28;20037;-75
2022/01/17 08:53:15;;;;;;;27.23;3.17;;;7.00;99.90;;;;;;4974376;28;20051;-77
2022/01/17 08:55:45;;;;;;;19.30;3.00;;;7.10;99.90;;;;;;4974945;28;20029;-76
2022/01/17 08:58:12;;;;;;;24.55;3.20;;;7.10;99.90;;;;;;4984320;28;20122;-78
2022/01/17 09:00:37;;;;;;;25.10;2.72;;;7.20;99.90;;;;;;4974050;28;20023;-78
2022/01/17 09:03:22;;;;;;;14.10;2.90;;;7.20;99.90;;;;;;4974254;28;20114;-79
2022/01/17 09:05:48;;;;;;;18.15;3.03;;;7.20;99.90;;;;;;4975443;28;20027;-79
2022/01/17 09:08:14;;;;;;;10.73;2.10;;;7.30;99.90;;;;;;4973369;28;20118;-80
2022/01/17 09:10:40;;;;;;;24.58;2.95;;;7.30;99.90;;;;;;4974539;28;20373;-79
2022/01/17 09:13:07;;;;;;;18.13;3.47;;;7.40;99.90;;;;;;4973924;28;20038;-78
2022/01/17 09:15:33;;;;;;;14.25;3.72;;;7.40;99.90;;;;;;4975229;28;20074;-77
2022/01/17 09:17:58;;;;;;;21.63;2.47;;;7.40;99.90;;;;;;4974626;28;20035;-79
2022/01/17 09:20:24;;;;;;;21.05;2.80;;;7.30;99.90;;;;;;4973990;28;20502;-75
2022/01/17 09:22:50;;;;;;;19.67;4.43;;;7.40;99.90;;;;;;4973976;28;20034;-79
2022/01/17 09:25:16;;;;;;;18.10;3.30;;;7.40;99.90;;;;;;4973399;28;20031;-77
2022/01/17 09:27:42;;;;;;;16.48;2.33;;;7.50;99.90;;;;;;4974410;28;20097;-78
2022/01/17 09:30:13;;;;;;;11.00;1.88;;;7.50;99.90;;;;;;4974504;28;20089;-79
2022/01/17 09:32:40;;;;;;;12.52;3.10;;;7.60;99.90;;;;;;4959786;28;20025;-79
2022/01/17 09:35:07;;;;;;;19.35;2.60;;;7.70;99.90;;;;;;4974898;28;20026;-79
2022/01/17 09:37:34;;;;;;;16.95;2.45;;;7.70;99.90;;;;;;4975185;28;20050;-78
2022/01/17 09:40:00;;;;;;;19.30;2.58;;;7.70;99.90;;;;;;4975830;28;20023;-79
2022/01/17 09:42:26;;;;;;;12.85;2.45;;;7.80;99.90;;;;;;4975298;28;20728;-79
2022/01/17 09:44:52;;;;;;;13.88;2.50;;;7.90;99.90;;;;;;4976183;28;20031;-79
2022/01/17 09:47:19;;;;;;;17.70;2.38;;;7.90;99.90;;;;;;4971355;28;20042;-80
2022/01/17 09:49:53;;;;;;;23.17;2.63;;;7.90;99.90;;;;;;4975649;28;20117;-80
2022/01/17 09:54:56;;;;;;;16.88;2.88;;;7.90;99.90;;;;;;4972590;28;20031;-78
2022/01/17 09:57:23;;;;;;;21.55;3.30;;;8.10;99.90;;;;;;4967802;28;20081;-78
2022/01/17 09:59:48;;;;;;;28.88;3.13;;;8.10;99.90;;;;;;4963768;28;20038;-79
2022/01/17 10:02:15;;;;;;;33.10;3.40;;;8.10;99.90;;;;;;4968997;28;20030;-80
2022/01/17 10:04:41;;;;;;;13.07;2.55;;;8.10;99.90;;;;;;4970478;28;20043;-78
2022/01/17 10:07:07;;;;;;;14.10;2.67;;;8.10;99.90;;;;;;4969486;28;20038;-79
2022/01/17 10:09:35;;;;;;;12.48;2.45;;;8.20;99.90;;;;;;4971650;28;20052;-79
2022/01/17 10:12:01;;;;;;;;;;;8.20;99.90;;;;;;4968468;28;20034;-78
2022/01/17 10:14:30;;;;;;;15.52;2.33;;;8.20;99.90;;;;;;4965195;28;20358;-77
2022/01/17 10:16:57;;;;;;;22.50;3.13;;;8.30;99.90;;;;;;4968022;28;20030;-79
2022/01/17 10:19:25;;;;;;;19.55;2.58;;;8.30;99.90;;;;;;4967444;28;20034;-78
2022/01/17 10:21:55;;;;;;;17.60;2.85;;;8.30;99.90;;;;;;4974730;28;20030;-78
2022/01/17 10:24:39;;;;;;;13.18;1.48;;;8.30;99.90;;;;;;4971825;28;20038;-77
2022/01/17 10:27:18;;;;;;;24.23;3.38;;;8.30;99.90;;;;;;4972264;28;20042;-77
2022/01/17 10:35:23;;;;;;;12.45;2.33;;;8.50;99.90;;;;;;4974312;28;20041;-80
2022/01/17 10:38:03;;;;;;;14.93;1.88;;;8.50;99.90;;;;;;4974464;28;20042;-81
2022/01/17 10:40:33;;;;;;;18.13;2.53;;;8.40;99.90;;;;;;4972409;28;20061;-80
2022/01/17 10:43:01;;;;;;;16.23;2.95;;;8.40;99.90;;;;;;4961218;28;20152;-80
2022/01/17 10:45:33;;;;;;;26.75;2.58;;;8.40;99.90;;;;;;4972833;28;20027;-80
2022/01/17 10:48:00;;;;;;;37.13;3.55;;;8.50;99.90;;;;;;4974291;28;20031;-79
2022/01/17 10:50:32;;;;;;;19.17;2.63;;;8.50;99.90;;;;;;4972967;28;20042;-81
2022/01/17 10:53:08;;;;;;;18.40;2.53;;;8.50;99.90;;;;;;4972051;28;20658;-80
2022/01/17 10:55:44;;;;;;;17.35;2.05;;;8.50;99.90;;;;;;4971291;28;20031;-80
2022/01/17 10:58:13;;;;;;;24.38;4.18;;;8.60;99.90;;;;;;4974119;28;20043;-80
2022/01/17 11:00:43;;;;;;;17.02;3.00;;;8.70;99.90;;;;;;4972067;28;20022;-80
2022/01/17 11:03:11;;;;;;;15.80;2.15;;;8.70;99.90;;;;;;4967265;28;20455;-80
2022/01/17 11:05:45;;;;;;;17.63;2.55;;;8.80;99.90;;;;;;4972082;28;20145;-81
2022/01/17 11:08:12;;;;;;;12.57;2.60;;;8.90;99.90;;;;;;4974195;28;20055;-80
2022/01/17 11:10:41;;;;;;;14.60;2.13;;;9.00;99.90;;;;;;4973980;28;20035;-81
2022/01/17 11:13:10;;;;;;;11.35;2.35;;;9.00;99.90;;;;;;4962012;28;20593;-80
2022/01/17 11:15:38;;;;;;;12.32;2.33;;;9.00;99.90;;;;;;4973022;28;20049;-80
2022/01/17 11:18:17;;;;;;;18.17;4.03;;;9.00;99.90;;;;;;4974554;28;20031;-80
2022/01/17 11:20:43;;;;;;;15.93;2.15;;;9.10;99.90;;;;;;4974619;28;20038;-81
2022/01/17 11:23:09;;;;;;;13.98;2.15;;;9.00;99.90;;;;;;4976714;28;20038;-80
2022/01/17 11:25:39;;;;;;;4.63;1.67;;;9.00;99.90;;;;;;4978155;28;20130;-80
2022/01/17 11:28:06;;;;;;;17.83;3.63;;;9.10;99.90;;;;;;4979689;28;20042;-80
2022/01/17 11:30:34;;;;;;;24.92;2.70;;;9.20;99.90;;;;;;4982152;28;20050;-80
2022/01/17 11:33:07;;;;;;;15.20;1.92;;;9.20;99.90;;;;;;4990911;28;20391;-79
2022/01/17 11:35:34;;;;;;;8.50;2.28;;;9.30;99.90;;;;;;4989194;28;20050;-79
2022/01/17 11:38:02;;;;;;;17.98;1.92;;;9.20;99.90;;;;;;4989763;28;20070;-80
2022/01/17 11:40:34;;;;;;;12.80;2.65;;;9.30;99.90;;;;;;4990014;28;20034;-79
2022/01/17 11:43:14;;;;;;;11.77;2.95;;;9.20;99.90;;;;;;4999169;28;20062;-80
2022/01/17 11:45:41;;;;;;;11.00;2.20;;;9.30;99.90;;;;;;5000317;28;20042;-79
2022/01/17 11:48:19;;;;;;;23.58;2.65;;;9.30;99.90;;;;;;5000890;28;20027;-78
2022/01/17 11:50:47;;;;;;;;;;;9.40;99.90;;;;;;5000545;28;20063;-81
2022/01/17 11:53:12;;;;;;;;;;;9.30;99.90;;;;;;4997038;28;19914;-79
2022/01/17 11:55:44;;;;;;;26.05;3.90;;;9.40;99.90;;;;;;5000375;28;19902;-80
2022/01/17 11:58:22;;;;;;;17.08;2.38;;;9.40;99.90;;;;;;5001400;28;20035;-80
2022/01/17 12:01:08;;;;;;;;;;;9.30;99.90;;;;;;4990197;28;20035;-79
2022/01/17 12:03:49;;;;;;;17.92;2.83;;;9.40;99.90;;;;;;4994894;28;19961;-79
2022/01/17 12:06:19;;;;;;;28.67;2.58;;;9.40;99.90;;;;;;4999683;28;20027;-80
2022/01/17 12:08:44;;;;;;;14.30;2.70;;;9.40;99.90;;;;;;5000182;28;20063;-79
2022/01/17 12:11:26;;;;;;;13.85;2.10;;;9.30;99.90;;;;;;5000840;28;20041;-79
2022/01/17 12:13:52;;;;;;;13.25;2.25;;;9.30;99.90;;;;;;4999436;28;20031;-79
2022/01/17 12:16:38;;;;;;;14.05;2.20;;;9.30;99.90;;;;;;5000783;28;20034;-81
2022/01/17 12:19:07;;;;;;;15.55;1.83;;;9.20;99.90;;;;;;5000586;28;20030;-80
2022/01/17 12:21:36;;;;;;;21.50;3.40;;;9.10;99.90;;;;;;5001066;28;20090;-80
2022/01/17 12:24:17;;;;;;;19.42;3.70;;;9.20;99.90;;;;;;5000401;28;20026;-79
2022/01/17 12:26:53;;;;;;;14.90;2.92;;;9.20;99.90;;;;;;4984078;28;20031;-78
2022/01/17 12:29:33;;;;;;;16.45;2.20;;;9.20;99.90;;;;;;4981253;28;20043;-79
2022/01/17 12:31:59;;;;;;;13.10;2.38;;;9.20;99.90;;;;;;5000207;28;20015;-79
2022/01/17 12:34:26;;;;;;;23.67;2.42;;;9.30;99.90;;;;;;4995817;28;20023;-80
2022/01/17 12:36:55;;;;;;;10.20;1.13;;;9.30;99.90;;;;;;4999212;28;20050;-79
2022/01/17 12:39:22;;;;;;;25.70;3.22;;;9.40;99.90;;;;;;4999833;28;20082;-79
2022/01/17 12:41:52;;;;;;;23.13;1.87;;;9.40;99.90;;;;;;4998709;28;20018;-79
2022/01/17 12:44:30;;;;;;;17.35;1.92;;;9.50;99.90;;;;;;4998834;28;20038;-80
2022/01/17 12:46:59;;;;;;;16.63;2.45;;;9.50;99.90;;;;;;4997056;28;20019;-80
2022/01/17 12:49:28;;;;;;;21.30;2.88;;;9.40;99.90;;;;;;4991374;28;20043;-80
2022/01/17 12:51:56;;;;;;;15.55;2.72;;;9.40;99.90;;;;;;4989323;28;20034;-80
2022/01/17 12:54:28;;;;;;;22.90;3.08;;;9.40;99.90;;;;;;4985061;28;20042;-80
2022/01/17 12:56:57;;;;;;;23.90;2.58;;;9.40;99.90;;;;;;4984404;28;20031;-81
2022/01/17 12:59:24;;;;;;;9.43;2.03;;;9.50;99.90;;;;;;4970411;28;20050;-81
2022/01/17 13:01:53;;;;;;;17.30;2.95;;;9.50;99.90;;;;;;4971441;28;20050;-81
2022/01/17 13:04:19;;;;;;;;;;;9.60;99.90;;;;;;4978813;28;20031;-80
2022/01/17 13:06:46;;;;;;;15.88;2.55;;;9.50;99.90;;;;;;4976956;28;19924;-81
2022/01/17 13:09:20;;;;;;;29.97;3.97;;;9.50;99.90;;;;;;4978842;28;20038;-81
2022/01/17 13:11:47;;;;;;;14.55;2.10;;;9.60;99.90;;;;;;4976353;28;20286;-80
2022/01/17 13:14:16;;;;;;;16.00;1.97;;;9.60;99.90;;;;;;4976136;28;20034;-81
2022/01/17 13:16:43;;;;;;;26.00;3.53;;;9.60;99.90;;;;;;4978784;28;20344;-80